sensor_id;sensor_type;location;lat;lon;timestamp;pressure;altitude;pressure_sealevel;temperature;humidity
69153;BME280;56261;51.580;4.578;2022-10-30T00:00:49;101791.66;;;14.64;100.00
69153;BME280;56261;51.580;4.578;2022-10-30T00:03:15;101784.94;;;14.68;100.00
69153;BME280;56261;51.580;4.578;2022-10-30T00:05:42;101779.72;;;14.75;100.00
69153;BME280;56261;51.580;4.578;2022-10-30T00:08:09;101787.44;;;14.78;100.00
69153;BME280;56261;51.580;4.578;2022-10-30T00:10:35;101774.53;;;14.73;100.00
69153;BME280;56261;51.580;4.578;2022-10-30T00:13:00;101778.13;;;14.89;100.00
69153;BME280;56261;51.580;4.578;2022-10-30T00:15:26;101781.00;;;14.87;100.00
69153;BME280;56261;51.580;4.578;2022-10-30T00:17:52;101780.38;;;14.77;100.00
69153;BME280;56261;51.580;4.578;2022-10-30T00:20:17;101782.38;;;14.83;100.00
69153;BME280;56261;51.580;4.578;2022-10-30T00:22:42;101789.78;;;14.73;100.00
69153;BME280;56261;51.580;4.578;2022-10-30T00:25:08;101788.31;;;14.62;100.00
69153;BME280;56261;51.580;4.578;2022-10-30T00:27:33;101783.09;;;14.69;100.00
69153;BME280;56261;51.580;4.578;2022-10-30T00:29:59;101775.75;;;14.63;100.00
69153;BME280;56261;51.580;4.578;2022-10-30T00:32:24;101786.66;;;14.61;100.00
69153;BME280;56261;51.580;4.578;2022-10-30T00:34:49;101774.25;;;14.60;100.00
69153;BME280;56261;51.580;4.578;2022-10-30T00:37:15;101778.06;;;14.66;100.00
69153;BME280;56261;51.580;4.578;2022-10-30T00:39:40;101777.94;;;14.59;100.00
69153;BME280;56261;51.580;4.578;2022-10-30T00:42:10;101774.06;;;14.53;100.00
69153;BME280;56261;51.580;4.578;2022-10-30T00:47:12;101773.91;;;14.55;100.00
69153;BME280;56261;51.580;4.578;2022-10-30T00:49:50;101773.91;;;14.55;100.00
69153;BME280;56261;51.580;4.578;2022-10-30T00:52:16;101775.06;;;14.52;100.00
69153;BME280;56261;51.580;4.578;2022-10-30T00:54:42;101763.19;;;14.39;100.00
69153;BME280;56261;51.580;4.578;2022-10-30T00:57:08;101773.94;;;14.39;100.00
69153;BME280;56261;51.580;4.578;2022-10-30T00:59:37;101779.00;;;14.33;100.00
69153;BME280;56261;51.580;4.578;2022-10-30T01:02:03;101780.97;;;14.40;100.00
69153;BME280;56261;51.580;4.578;2022-10-30T01:04:30;101778.47;;;14.38;100.00
69153;BME280;56261;51.580;4.578;2022-10-30T01:06:59;101779.13;;;14.40;100.00
69153;BME280;56261;51.580;4.578;2022-10-30T01:09:26;101782.00;;;14.30;100.00
69153;BME280;56261;51.580;4.578;2022-10-30T01:11:52;101780.13;;;14.31;100.00
69153;BME280;56261;51.580;4.578;2022-10-30T01:14:19;101784.19;;;14.27;100.00
69153;BME280;56261;51.580;4.578;2022-10-30T01:25:31;101786.69;;;14.28;100.00
69153;BME280;56261;51.580;4.578;2022-10-30T01:28:03;101785.69;;;14.29;100.00
69153;BME280;56261;51.580;4.578;2022-10-30T01:33:36;101789.72;;;14.25;100.00
69153;BME280;56261;51.580;4.578;2022-10-30T01:36:20;101790.91;;;14.23;100.00
69153;BME280;56261;51.580;4.578;2022-10-30T01:38:51;101784.34;;;14.25;100.00
69153;BME280;56261;51.580;4.578;2022-10-30T01:41:18;101783.69;;;14.23;100.00
69153;BME280;56261;51.580;4.578;2022-10-30T01:43:45;101782.34;;;14.27;100.00
69153;BME280;56261;51.580;4.578;2022-10-30T01:46:33;101785.53;;;14.23;100.00
69153;BME280;56261;51.580;4.578;2022-10-30T01:49:36;101782.53;;;14.18;100.00
69153;BME280;56261;51.580;4.578;2022-10-30T01:54:49;101794.41;;;14.23;100.00
69153;BME280;56261;51.580;4.578;2022-10-30T02:00:04;101790.41;;;14.27;100.00
69153;BME280;56261;51.580;4.578;2022-10-30T02:02:30;101800.31;;;14.27;100.00
69153;BME280;56261;51.580;4.578;2022-10-30T02:04:57;101788.06;;;14.16;100.00
69153;BME280;56261;51.580;4.578;2022-10-30T02:07:23;101786.88;;;14.19;100.00
69153;BME280;56261;51.580;4.578;2022-10-30T02:09:50;101790.41;;;14.19;100.00
69153;BME280;56261;51.580;4.578;2022-10-30T02:12:17;101781.53;;;14.19;100.00
69153;BME280;56261;51.580;4.578;2022-10-30T02:14:47;101784.19;;;14.19;100.00
69153;BME280;56261;51.580;4.578;2022-10-30T02:17:13;101780.19;;;14.23;100.00
69153;BME280;56261;51.580;4.578;2022-10-30T02:19:39;101783.34;;;14.26;100.00
69153;BME280;56261;51.580;4.578;2022-10-30T02:22:05;101780.84;;;14.25;100.00
69153;BME280;56261;51.580;4.578;2022-10-30T02:24:30;101781.53;;;14.19;100.00
69153;BME280;56261;51.580;4.578;2022-10-30T02:26:56;101780.84;;;14.08;100.00
69153;BME280;56261;51.580;4.578;2022-10-30T02:29:21;101777.19;;;14.09;100.00
69153;BME280;56261;51.580;4.578;2022-10-30T02:31:47;101785.91;;;14.03;100.00
69153;BME280;56261;51.580;4.578;2022-10-30T02:34:13;101781.88;;;13.99;100.00
69153;BME280;56261;51.580;4.578;2022-10-30T02:36:39;101784.41;;;14.01;100.00
69153;BME280;56261;51.580;4.578;2022-10-30T02:39:04;101782.91;;;13.98;100.00
69153;BME280;56261;51.580;4.578;2022-10-30T02:41:31;101786.41;;;14.07;100.00
69153;BME280;56261;51.580;4.578;2022-10-30T02:43:57;101786.41;;;13.99;100.00
69153;BME280;56261;51.580;4.578;2022-10-30T02:46:23;101785.22;;;14.01;100.00
69153;BME280;56261;51.580;4.578;2022-10-30T02:48:49;101784.38;;;13.93;100.00
69153;BME280;56261;51.580;4.578;2022-10-30T02:51:14;101787.59;;;13.96;100.00
69153;BME280;56261;51.580;4.578;2022-10-30T02:53:40;101798.31;;;13.96;100.00
69153;BME280;56261;51.580;4.578;2022-10-30T02:56:10;101796.78;;;14.02;100.00
69153;BME280;56261;51.580;4.578;2022-10-30T02:58:36;101798.31;;;14.04;100.00
69153;BME280;56261;51.580;4.578;2022-10-30T03:01:06;101801.84;;;14.05;100.00
69153;BME280;56261;51.580;4.578;2022-10-30T03:03:31;101799.47;;;14.02;100.00
69153;BME280;56261;51.580;4.578;2022-10-30T03:05:59;101801.81;;;13.97;100.00
69153;BME280;56261;51.580;4.578;2022-10-30T03:08:26;101809.88;;;13.88;100.00
69153;BME280;56261;51.580;4.578;2022-10-30T03:10:51;101817.09;;;13.80;100.00
69153;BME280;56261;51.580;4.578;2022-10-30T03:13:16;101808.38;;;13.69;100.00
69153;BME280;56261;51.580;4.578;2022-10-30T03:15:42;101810.03;;;13.70;100.00
69153;BME280;56261;51.580;4.578;2022-10-30T03:18:07;101813.22;;;13.66;100.00
69153;BME280;56261;51.580;4.578;2022-10-30T03:20:32;101808.53;;;13.60;100.00
69153;BME280;56261;51.580;4.578;2022-10-30T03:22:58;101802.31;;;13.59;100.00
69153;BME280;56261;51.580;4.578;2022-10-30T03:25:23;101785.56;;;13.57;100.00
69153;BME280;56261;51.580;4.578;2022-10-30T03:27:48;101778.19;;;13.51;100.00
69153;BME280;56261;51.580;4.578;2022-10-30T03:30:14;101794.44;;;13.49;100.00
69153;BME280;56261;51.580;4.578;2022-10-30T03:32:39;101795.09;;;13.52;100.00
69153;BME280;56261;51.580;4.578;2022-10-30T03:35:05;101791.75;;;13.49;100.00
69153;BME280;56261;51.580;4.578;2022-10-30T03:37:30;101795.78;;;13.54;100.00
69153;BME280;56261;51.580;4.578;2022-10-30T03:39:55;101805.31;;;13.48;100.00
69153;BME280;56261;51.580;4.578;2022-10-30T03:42:21;101798.25;;;13.39;100.00
69153;BME280;56261;51.580;4.578;2022-10-30T03:44:46;101810.34;;;13.43;100.00
69153;BME280;56261;51.580;4.578;2022-10-30T03:47:11;101812.50;;;13.31;100.00
69153;BME280;56261;51.580;4.578;2022-10-30T03:49:37;101803.97;;;13.36;100.00
69153;BME280;56261;51.580;4.578;2022-10-30T03:52:02;101802.78;;;13.38;100.00
69153;BME280;56261;51.580;4.578;2022-10-30T03:54:28;101800.09;;;13.30;100.00
69153;BME280;56261;51.580;4.578;2022-10-30T03:56:53;101801.72;;;13.23;100.00
69153;BME280;56261;51.580;4.578;2022-10-30T03:59:18;101803.03;;;13.19;100.00
69153;BME280;56261;51.580;4.578;2022-10-30T04:01:44;101806.09;;;13.24;100.00
69153;BME280;56261;51.580;4.578;2022-10-30T04:04:09;101804.75;;;13.28;100.00
69153;BME280;56261;51.580;4.578;2022-10-30T04:06:34;101801.09;;;13.29;100.00
69153;BME280;56261;51.580;4.578;2022-10-30T04:09:00;101805.28;;;13.32;100.00
69153;BME280;56261;51.580;4.578;2022-10-30T04:11:25;101803.06;;;13.27;100.00
69153;BME280;56261;51.580;4.578;2022-10-30T04:13:50;101799.72;;;13.25;100.00
69153;BME280;56261;51.580;4.578;2022-10-30T04:16:16;101799.00;;;13.15;100.00
69153;BME280;56261;51.580;4.578;2022-10-30T04:18:41;101796.50;;;13.13;100.00
69153;BME280;56261;51.580;4.578;2022-10-30T04:21:06;101803.34;;;13.07;100.00
69153;BME280;56261;51.580;4.578;2022-10-30T04:23:32;101802.34;;;13.08;100.00
69153;BME280;56261;51.580;4.578;2022-10-30T04:25:59;101795.63;;;13.04;100.00
69153;BME280;56261;51.580;4.578;2022-10-30T04:28:25;101798.31;;;13.04;100.00
69153;BME280;56261;51.580;4.578;2022-10-30T04:30:50;101794.63;;;13.05;100.00
69153;BME280;56261;51.580;4.578;2022-10-30T04:33:16;101801.19;;;13.11;100.00
69153;BME280;56261;51.580;4.578;2022-10-30T04:35:41;101812.81;;;13.28;100.00
69153;BME280;56261;51.580;4.578;2022-10-30T04:38:12;101809.25;;;13.27;100.00
69153;BME280;56261;51.580;4.578;2022-10-30T04:40:39;101799.19;;;13.21;100.00
69153;BME280;56261;51.580;4.578;2022-10-30T04:43:06;101797.53;;;13.20;100.00
69153;BME280;56261;51.580;4.578;2022-10-30T04:45:32;101795.19;;;13.17;100.00
69153;BME280;56261;51.580;4.578;2022-10-30T04:48:02;101799.69;;;13.17;100.00
69153;BME280;56261;51.580;4.578;2022-10-30T04:50:28;101788.94;;;13.00;100.00
69153;BME280;56261;51.580;4.578;2022-10-30T04:53:02;101789.78;;;13.09;100.00
69153;BME280;56261;51.580;4.578;2022-10-30T04:55:28;101790.97;;;13.06;100.00
69153;BME280;56261;51.580;4.578;2022-10-30T04:57:57;101793.63;;;13.06;100.00
69153;BME280;56261;51.580;4.578;2022-10-30T05:00:23;101788.28;;;13.06;100.00
69153;BME280;56261;51.580;4.578;2022-10-30T05:02:49;101784.44;;;13.09;100.00
69153;BME280;56261;51.580;4.578;2022-10-30T05:05:14;101783.13;;;13.13;100.00
69153;BME280;56261;51.580;4.578;2022-10-30T05:07:40;101778.25;;;13.08;100.00
69153;BME280;56261;51.580;4.578;2022-10-30T05:10:05;101773.69;;;13.01;100.00
69153;BME280;56261;51.580;4.578;2022-10-30T05:12:31;101780.75;;;13.02;100.00
69153;BME280;56261;51.580;4.578;2022-10-30T05:14:56;101781.72;;;13.01;100.00
69153;BME280;56261;51.580;4.578;2022-10-30T05:17:21;101780.06;;;13.00;100.00
69153;BME280;56261;51.580;4.578;2022-10-30T05:19:47;101779.38;;;13.06;100.00
69153;BME280;56261;51.580;4.578;2022-10-30T05:22:13;101767.16;;;13.03;100.00
69153;BME280;56261;51.580;4.578;2022-10-30T05:24:38;101774.22;;;13.04;100.00
69153;BME280;56261;51.580;4.578;2022-10-30T05:27:03;101777.56;;;13.06;100.00
69153;BME280;56261;51.580;4.578;2022-10-30T05:29:29;101778.56;;;13.05;100.00
69153;BME280;56261;51.580;4.578;2022-10-30T05:31:54;101775.88;;;13.05;100.00
69153;BME280;56261;51.580;4.578;2022-10-30T05:34:19;101787.09;;;13.01;100.00
69153;BME280;56261;51.580;4.578;2022-10-30T05:36:45;101780.91;;;13.00;100.00
69153;BME280;56261;51.580;4.578;2022-10-30T05:39:10;101786.44;;;13.07;100.00
69153;BME280;56261;51.580;4.578;2022-10-30T05:41:35;101793.47;;;13.08;100.00
69153;BME280;56261;51.580;4.578;2022-10-30T05:44:01;101781.09;;;13.07;100.00
69153;BME280;56261;51.580;4.578;2022-10-30T05:46:26;101788.78;;;13.02;100.00
69153;BME280;56261;51.580;4.578;2022-10-30T05:48:52;101782.91;;;12.98;100.00
69153;BME280;56261;51.580;4.578;2022-10-30T05:51:17;101790.25;;;12.96;100.00
69153;BME280;56261;51.580;4.578;2022-10-30T05:53:42;101787.38;;;12.90;100.00
69153;BME280;56261;51.580;4.578;2022-10-30T05:56:08;101795.75;;;12.86;100.00
69153;BME280;56261;51.580;4.578;2022-10-30T05:58:33;101794.44;;;12.91;100.00
69153;BME280;56261;51.580;4.578;2022-10-30T06:00:58;101801.28;;;12.93;100.00
69153;BME280;56261;51.580;4.578;2022-10-30T06:03:24;101796.63;;;12.95;100.00
69153;BME280;56261;51.580;4.578;2022-10-30T06:05:49;101798.91;;;12.90;100.00
69153;BME280;56261;51.580;4.578;2022-10-30T06:08:15;101793.06;;;12.86;100.00
69153;BME280;56261;51.580;4.578;2022-10-30T06:10:41;101797.09;;;12.91;100.00
69153;BME280;56261;51.580;4.578;2022-10-30T06:13:06;101799.25;;;12.87;100.00
69153;BME280;56261;51.580;4.578;2022-10-30T06:15:32;101806.06;;;12.73;100.00
69153;BME280;56261;51.580;4.578;2022-10-30T06:17:58;101801.69;;;12.72;100.00
69153;BME280;56261;51.580;4.578;2022-10-30T06:20:26;101801.88;;;12.71;100.00
69153;BME280;56261;51.580;4.578;2022-10-30T06:23:02;101803.69;;;12.70;100.00
69153;BME280;56261;51.580;4.578;2022-10-30T06:25:30;101801.69;;;12.72;100.00
69153;BME280;56261;51.580;4.578;2022-10-30T06:27:56;101800.84;;;12.72;100.00
69153;BME280;56261;51.580;4.578;2022-10-30T06:30:21;101803.03;;;12.76;100.00
69153;BME280;56261;51.580;4.578;2022-10-30T06:32:47;101797.19;;;12.73;100.00
69153;BME280;56261;51.580;4.578;2022-10-30T06:35:13;101791.31;;;12.69;100.00
69153;BME280;56261;51.580;4.578;2022-10-30T06:37:44;101795.34;;;12.73;100.00
69153;BME280;56261;51.580;4.578;2022-10-30T06:40:10;101798.38;;;12.78;100.00
69153;BME280;56261;51.580;4.578;2022-10-30T06:42:46;101798.03;;;12.81;100.00
69153;BME280;56261;51.580;4.578;2022-10-30T06:45:13;101785.53;;;12.90;100.00
69153;BME280;56261;51.580;4.578;2022-10-30T06:47:39;101789.75;;;12.93;100.00
69153;BME280;56261;51.580;4.578;2022-10-30T06:50:06;101789.94;;;13.07;100.00
69153;BME280;56261;51.580;4.578;2022-10-30T06:52:31;101784.09;;;13.04;100.00
69153;BME280;56261;51.580;4.578;2022-10-30T06:54:57;101787.16;;;13.17;100.00
69153;BME280;56261;51.580;4.578;2022-10-30T06:57:22;101775.06;;;13.21;100.00
69153;BME280;56261;51.580;4.578;2022-10-30T06:59:48;101769.03;;;13.19;100.00
69153;BME280;56261;51.580;4.578;2022-10-30T07:02:13;101772.09;;;13.24;100.00
69153;BME280;56261;51.580;4.578;2022-10-30T07:04:39;101777.66;;;13.31;100.00
69153;BME280;56261;51.580;4.578;2022-10-30T07:07:04;101779.50;;;13.39;100.00
69153;BME280;56261;51.580;4.578;2022-10-30T07:09:29;101779.03;;;13.52;100.00
69153;BME280;56261;51.580;4.578;2022-10-30T07:11:55;101777.50;;;13.57;100.00
69153;BME280;56261;51.580;4.578;2022-10-30T07:14:20;101768.13;;;13.61;100.00
69153;BME280;56261;51.580;4.578;2022-10-30T07:16:46;101777.69;;;13.72;100.00
69153;BME280;56261;51.580;4.578;2022-10-30T07:19:11;101787.75;;;13.78;100.00
69153;BME280;56261;51.580;4.578;2022-10-30T07:21:37;101780.72;;;13.85;100.00
69153;BME280;56261;51.580;4.578;2022-10-30T07:24:02;101782.56;;;13.77;100.00
69153;BME280;56261;51.580;4.578;2022-10-30T07:26:28;101782.88;;;13.82;100.00
69153;BME280;56261;51.580;4.578;2022-10-30T07:28:53;101784.91;;;13.80;100.00
69153;BME280;56261;51.580;4.578;2022-10-30T07:31:18;101779.72;;;13.78;100.00
69153;BME280;56261;51.580;4.578;2022-10-30T07:33:44;101779.03;;;13.93;100.00
69153;BME280;56261;51.580;4.578;2022-10-30T07:36:09;101771.13;;;13.99;100.00
69153;BME280;56261;51.580;4.578;2022-10-30T07:38:35;101779.22;;;13.91;100.00
69153;BME280;56261;51.580;4.578;2022-10-30T07:41:00;101775.00;;;13.97;100.00
69153;BME280;56261;51.580;4.578;2022-10-30T07:43:25;101765.63;;;13.93;100.00
69153;BME280;56261;51.580;4.578;2022-10-30T07:45:51;101782.53;;;14.18;100.00
69153;BME280;56261;51.580;4.578;2022-10-30T07:48:16;101773.25;;;14.45;100.00
69153;BME280;56261;51.580;4.578;2022-10-30T07:50:41;101771.47;;;14.85;100.00
69153;BME280;56261;51.580;4.578;2022-10-30T07:53:07;101776.97;;;14.91;100.00
69153;BME280;56261;51.580;4.578;2022-10-30T07:55:32;101770.31;;;15.33;100.00
69153;BME280;56261;51.580;4.578;2022-10-30T07:57:58;101767.56;;;15.65;100.00
69153;BME280;56261;51.580;4.578;2022-10-30T08:00:23;101779.00;;;15.67;100.00
69153;BME280;56261;51.580;4.578;2022-10-30T08:02:50;101778.59;;;15.55;100.00
69153;BME280;56261;51.580;4.578;2022-10-30T08:05:16;101788.16;;;15.81;100.00
69153;BME280;56261;51.580;4.578;2022-10-30T08:07:41;101788.69;;;15.99;100.00
69153;BME280;56261;51.580;4.578;2022-10-30T08:10:07;101784.75;;;15.87;100.00
69153;BME280;56261;51.580;4.578;2022-10-30T08:12:33;101795.22;;;15.82;100.00
69153;BME280;56261;51.580;4.578;2022-10-30T08:15:00;101801.00;;;15.47;100.00
69153;BME280;56261;51.580;4.578;2022-10-30T08:17:25;101789.25;;;15.40;100.00
69153;BME280;56261;51.580;4.578;2022-10-30T08:19:51;101797.94;;;15.27;100.00
69153;BME280;56261;51.580;4.578;2022-10-30T08:22:16;101804.47;;;15.25;100.00
69153;BME280;56261;51.580;4.578;2022-10-30T08:24:42;101804.97;;;15.28;100.00
69153;BME280;56261;51.580;4.578;2022-10-30T08:27:08;101804.50;;;15.79;100.00
69153;BME280;56261;51.580;4.578;2022-10-30T08:29:33;101802.38;;;15.89;100.00
69153;BME280;56261;51.580;4.578;2022-10-30T08:31:59;101789.13;;;15.88;100.00
69153;BME280;56261;51.580;4.578;2022-10-30T08:34:25;101780.50;;;15.92;100.00
69153;BME280;56261;51.580;4.578;2022-10-30T08:36:56;101777.72;;;16.01;100.00
69153;BME280;56261;51.580;4.578;2022-10-30T08:39:22;101775.25;;;15.99;100.00
69153;BME280;56261;51.580;4.578;2022-10-30T08:41:47;101766.16;;;16.15;100.00
69153;BME280;56261;51.580;4.578;2022-10-30T08:44:13;101779.63;;;16.45;100.00
69153;BME280;56261;51.580;4.578;2022-10-30T08:46:38;101768.97;;;16.66;100.00
69153;BME280;56261;51.580;4.578;2022-10-30T08:49:03;101773.22;;;16.60;100.00
69153;BME280;56261;51.580;4.578;2022-10-30T08:51:33;101769.25;;;16.42;100.00
69153;BME280;56261;51.580;4.578;2022-10-30T08:53:59;101774.81;;;16.55;100.00
69153;BME280;56261;51.580;4.578;2022-10-30T08:56:25;101775.34;;;16.65;100.00
69153;BME280;56261;51.580;4.578;2022-10-30T08:58:51;101779.41;;;17.06;100.00
69153;BME280;56261;51.580;4.578;2022-10-30T09:01:16;101783.34;;;17.39;100.00
69153;BME280;56261;51.580;4.578;2022-10-30T09:03:43;101774.03;;;18.13;100.00
69153;BME280;56261;51.580;4.578;2022-10-30T09:06:09;101769.78;;;18.32;100.00
69153;BME280;56261;51.580;4.578;2022-10-30T09:08:34;101778.75;;;18.39;100.00
69153;BME280;56261;51.580;4.578;2022-10-30T09:11:00;101781.13;;;18.49;100.00
69153;BME280;56261;51.580;4.578;2022-10-30T09:13:25;101786.72;;;18.19;100.00
69153;BME280;56261;51.580;4.578;2022-10-30T09:15:51;101802.06;;;17.48;100.00
69153;BME280;56261;51.580;4.578;2022-10-30T09:18:17;101793.31;;;18.10;100.00
69153;BME280;56261;51.580;4.578;2022-10-30T09:20:42;101782.56;;;18.86;100.00
69153;BME280;56261;51.580;4.578;2022-10-30T09:23:08;101773.00;;;19.65;100.00
69153;BME280;56261;51.580;4.578;2022-10-30T09:25:33;101770.91;;;19.47;100.00
69153;BME280;56261;51.580;4.578;2022-10-30T09:27:59;101763.19;;;19.44;100.00
69153;BME280;56261;51.580;4.578;2022-10-30T09:30:24;101767.22;;;18.94;100.00
69153;BME280;56261;51.580;4.578;2022-10-30T09:32:57;101779.69;;;18.53;100.00
69153;BME280;56261;51.580;4.578;2022-10-30T09:35:23;101775.13;;;18.54;100.00
69153;BME280;56261;51.580;4.578;2022-10-30T09:37:48;101768.09;;;18.66;100.00
69153;BME280;56261;51.580;4.578;2022-10-30T09:40:26;101768.50;;;18.63;100.00
69153;BME280;56261;51.580;4.578;2022-10-30T09:43:03;101773.44;;;18.53;100.00
69153;BME280;56261;51.580;4.578;2022-10-30T09:45:50;101772.72;;;18.72;100.00
69153;BME280;56261;51.580;4.578;2022-10-30T09:56:41;101769.91;;;18.87;100.00
69153;BME280;56261;51.580;4.578;2022-10-30T09:59:42;101775.06;;;18.82;100.00
69153;BME280;56261;51.580;4.578;2022-10-30T10:02:28;101763.56;;;18.66;100.00
69153;BME280;56261;51.580;4.578;2022-10-30T10:04:59;101773.13;;;18.69;100.00
69153;BME280;56261;51.580;4.578;2022-10-30T10:07:31;101771.34;;;18.83;100.00
69153;BME280;56261;51.580;4.578;2022-10-30T10:10:00;101766.28;;;18.73;100.00
69153;BME280;56261;51.580;4.578;2022-10-30T10:12:34;101784.31;;;19.01;100.00
69153;BME280;56261;51.580;4.578;2022-10-30T10:15:30;101774.91;;;18.90;100.00
69153;BME280;56261;51.580;4.578;2022-10-30T10:17:52;101777.47;;;19.05;100.00
69153;BME280;56261;51.580;4.578;2022-10-30T10:20:32;101782.44;;;19.08;100.00
69153;BME280;56261;51.580;4.578;2022-10-30T10:23:00;101784.38;;;19.21;100.00
69153;BME280;56261;51.580;4.578;2022-10-30T10:25:29;101773.34;;;19.16;100.00
69153;BME280;56261;51.580;4.578;2022-10-30T10:28:23;101772.19;;;18.90;100.00
69153;BME280;56261;51.580;4.578;2022-10-30T10:31:00;101776.25;;;18.73;100.00
69153;BME280;56261;51.580;4.578;2022-10-30T10:39:09;101764.78;;;19.12;100.00
69153;BME280;56261;51.580;4.578;2022-10-30T10:52:46;101739.50;;;19.73;100.00
69153;BME280;56261;51.580;4.578;2022-10-30T10:55:22;101729.09;;;19.83;100.00
69153;BME280;56261;51.580;4.578;2022-10-30T10:57:50;101728.47;;;19.88;100.00
69153;BME280;56261;51.580;4.578;2022-10-30T11:00:19;101731.59;;;19.78;100.00
69153;BME280;56261;51.580;4.578;2022-10-30T11:02:50;101734.91;;;19.60;100.00
69153;BME280;56261;51.580;4.578;2022-10-30T11:08:16;101743.25;;;19.79;100.00
69153;BME280;56261;51.580;4.578;2022-10-30T11:10:46;101733.25;;;19.99;100.00
69153;BME280;56261;51.580;4.578;2022-10-30T11:13:13;101738.66;;;19.99;100.00
69153;BME280;56261;51.580;4.578;2022-10-30T11:15:46;101740.53;;;20.05;100.00
69153;BME280;56261;51.580;4.578;2022-10-30T11:18:15;101731.75;;;20.23;100.00
69153;BME280;56261;51.580;4.578;2022-10-30T11:20:58;101718.97;;;20.44;100.00
69153;BME280;56261;51.580;4.578;2022-10-30T11:23:37;101715.06;;;20.20;100.00
69153;BME280;56261;51.580;4.578;2022-10-30T11:26:22;101727.94;;;20.44;100.00
69153;BME280;56261;51.580;4.578;2022-10-30T11:28:49;101726.31;;;20.30;100.00
69153;BME280;56261;51.580;4.578;2022-10-30T11:31:23;101728.97;;;20.43;100.00
69153;BME280;56261;51.580;4.578;2022-10-30T11:33:49;101728.09;;;20.63;100.00
69153;BME280;56261;51.580;4.578;2022-10-30T11:36:17;101733.13;;;20.52;100.00
69153;BME280;56261;51.580;4.578;2022-10-30T11:38:43;101724.22;;;20.32;100.00
69153;BME280;56261;51.580;4.578;2022-10-30T11:41:08;101729.84;;;20.37;100.00
69153;BME280;56261;51.580;4.578;2022-10-30T11:43:39;101729.66;;;20.25;100.00
69153;BME280;56261;51.580;4.578;2022-10-30T11:46:07;101721.91;;;20.36;100.00
69153;BME280;56261;51.580;4.578;2022-10-30T11:48:37;101729.69;;;20.19;100.00
69153;BME280;56261;51.580;4.578;2022-10-30T11:51:04;101721.75;;;20.24;100.00
69153;BME280;56261;51.580;4.578;2022-10-30T11:53:40;101729.84;;;20.30;100.00
69153;BME280;56261;51.580;4.578;2022-10-30T11:56:15;101725.91;;;20.20;100.00
69153;BME280;56261;51.580;4.578;2022-10-30T11:58:45;101729.91;;;20.04;100.00
69153;BME280;56261;51.580;4.578;2022-10-30T12:01:25;101726.38;;;20.03;100.00
69153;BME280;56261;51.580;4.578;2022-10-30T12:03:52;101734.06;;;20.13;100.00
69153;BME280;56261;51.580;4.578;2022-10-30T12:06:26;101729.88;;;20.17;100.00
69153;BME280;56261;51.580;4.578;2022-10-30T12:09:13;101724.31;;;19.92;100.00
69153;BME280;56261;51.580;4.578;2022-10-30T12:11:40;101729.88;;;20.10;100.00
69153;BME280;56261;51.580;4.578;2022-10-30T12:14:23;101728.59;;;20.33;100.00
69153;BME280;56261;51.580;4.578;2022-10-30T12:16:53;101719.59;;;20.46;100.00
69153;BME280;56261;51.580;4.578;2022-10-30T12:19:21;101714.38;;;20.44;100.00
69153;BME280;56261;51.580;4.578;2022-10-30T12:21:49;101724.00;;;20.27;100.00
69153;BME280;56261;51.580;4.578;2022-10-30T12:24:18;101722.84;;;19.89;100.00
69153;BME280;56261;51.580;4.578;2022-10-30T12:26:47;101718.06;;;19.98;100.00
69153;BME280;56261;51.580;4.578;2022-10-30T12:29:16;101719.50;;;20.07;100.00
69153;BME280;56261;51.580;4.578;2022-10-30T12:37:16;101732.44;;;19.85;100.00
69153;BME280;56261;51.580;4.578;2022-10-30T12:39:57;101732.44;;;19.85;100.00
69153;BME280;56261;51.580;4.578;2022-10-30T12:42:25;101724.03;;;20.20;100.00
69153;BME280;56261;51.580;4.578;2022-10-30T12:50:12;101725.97;;;19.80;100.00
69153;BME280;56261;51.580;4.578;2022-10-30T12:52:44;101710.75;;;19.59;100.00
69153;BME280;56261;51.580;4.578;2022-10-30T12:55:18;101721.38;;;19.67;100.00
69153;BME280;56261;51.580;4.578;2022-10-30T13:04:22;101716.34;;;19.31;100.00
69153;BME280;56261;51.580;4.578;2022-10-30T13:06:54;101718.03;;;19.32;100.00
69153;BME280;56261;51.580;4.578;2022-10-30T13:09:29;101725.09;;;19.33;100.00
69153;BME280;56261;51.580;4.578;2022-10-30T13:12:04;101719.66;;;19.26;100.00
69153;BME280;56261;51.580;4.578;2022-10-30T13:17:11;101737.75;;;19.19;100.00
69153;BME280;56261;51.580;4.578;2022-10-30T13:19:39;101727.59;;;19.34;100.00
69153;BME280;56261;51.580;4.578;2022-10-30T13:22:14;101727.16;;;19.31;100.00
69153;BME280;56261;51.580;4.578;2022-10-30T13:27:38;101710.31;;;19.28;100.00
69153;BME280;56261;51.580;4.578;2022-10-30T13:30:16;101715.31;;;19.25;100.00
69153;BME280;56261;51.580;4.578;2022-10-30T13:33:14;101718.03;;;19.45;100.00
69153;BME280;56261;51.580;4.578;2022-10-30T13:36:04;101717.41;;;19.43;100.00
69153;BME280;56261;51.580;4.578;2022-10-30T13:38:42;101717.19;;;19.51;100.00
69153;BME280;56261;51.580;4.578;2022-10-30T13:41:35;101715.53;;;19.63;100.00
69153;BME280;56261;51.580;4.578;2022-10-30T13:44:17;101724.09;;;19.80;100.00
69153;BME280;56261;51.580;4.578;2022-10-30T13:47:03;101721.16;;;19.55;100.00
69153;BME280;56261;51.580;4.578;2022-10-30T13:54:34;101740.88;;;19.09;100.00
69153;BME280;56261;51.580;4.578;2022-10-30T13:57:16;101761.25;;;19.05;100.00
69153;BME280;56261;51.580;4.578;2022-10-30T13:59:54;101774.97;;;19.10;100.00
69153;BME280;56261;51.580;4.578;2022-10-30T14:03:10;101782.03;;;18.98;100.00